• Join FlightAware (Why Join?)
  • Login
  • US Flag 
08:05AM EDT


 

Airport Tracker/Info


-or-


 

Live Flight TrackerFlight Track Log ✈ N3545Z ✈ 07-Jul-2013 ✈ MYAM / MHH - KMLB

Flight Track Log - Related Links

Times and Time Zones

All times are in EDT time to prevent confusion due to time zone crossing. See the N3545Z flight status page for this flight to view local times or setup timezone preferences in your user account.

Time Position Orientation Groundspeed Altitude Reporting Facility
EDT Latitude Longitude Course Direction KTS MPH feet Rate Location/Type
01:29PM 27.2544 -78.9197 293° West 189 217 10,600  Level Miami Center
01:30PM 27.2786 -78.9761 296° West 199 229 10,400 -360 Descending Miami Center
01:31PM 27.3069 -79.0306 300° West 213 245 9,900 -480 Descending Miami Center
01:32PM 27.3353 -79.0942 297° West 220 253 9,500 -480 Descending Miami Center
01:33PM 27.3719 -79.1533 305° West 225 259 9,000 -480 Descending Miami Center
01:34PM 26.6291 -77.3721 293° West  Level FlightAware Approximate
01:34PM 27.4086 -79.2103 306° West 225 259 8,600  Level Miami Center
01:35PM 27.4411 -79.2647 304° West 220 253 8,100 -300 Descending Miami Center
01:36PM 27.4717 -79.3122 306° West 217 250 8,000 -60 Descending Miami Center
01:37PM 27.5022 -79.3667 302° West 206 237 8,000  Level Miami Center
01:38PM 27.5325 -79.4236 301° West 201 231 8,100  Climbing Miami Center
01:39PM 27.5586 -79.4781 298° West 195 224 8,100 -60 Level Miami Center
01:40PM 27.5869 -79.5278 303° West 195 224 8,000  Descending Miami Center
01:41PM 27.6069 -79.5753 295° West 195 224 8,100  Climbing Miami Center
01:42PM 27.6350 -79.6322 299° West 190 219 8,000  Descending Miami Center
01:43PM 27.6633 -79.6867 300° West 190 219 8,100  Climbing Miami Center
01:44PM 27.6872 -79.7414 296° West 190 219 8,000  Descending Miami Center
01:45PM 27.7133 -79.7889 302° West 195 224 8,100  Climbing Miami Center
01:46PM 27.7394 -79.8411 299° West 195 224 8,100 -240 Level Miami Center
01:47PM 27.7675 -79.9031 297° West 201 231 7,700 -420 Descending Miami Center
01:48PM 27.7953 -79.9600 299° West 208 239 7,300 -660 Descending Miami Center
01:51PM 27.8667 -80.1167 297° West 221 254 5,500 -720 Descending Orlando TRACON
01:52PM 27.9000 -80.1667 307° West 219 252 4,800 -720 Descending Orlando TRACON
01:53PM 27.9167 -80.2333 286° West 215 247 4,100 -600 Descending Orlando TRACON
01:54PM 27.9500 -80.2833 307° West 211 243 3,700 -480 Descending Orlando TRACON
01:55PM 27.9833 -80.3500 300° West 207 238 3,100 -660 Descending Orlando TRACON
01:56PM 28.0000 -80.4000 291° West 213 245 2,400 -720 Descending Orlando TRACON
01:57PM 28.0333 -80.4667 300° West 216 249 1,800 -600 Descending Orlando TRACON
01:58PM 28.0500 -80.5167 291° West 212 244 1,200 -360 Descending Orlando TRACON
01:59PM 28.0667 -80.5833 286° West 201 231 1,100 -60 Descending Orlando TRACON
02:00PM 28.0833 -80.6333 291° West 168 193 1,100 -120 Level Orlando TRACON
02:01PM 28.0833 -80.6833 270° West 135 155 900 -240 Descending Orlando TRACON
02:03PM 28.1028 -80.6453 304° West  Level Estimated